Time;durP1;ratioP1;P1;durP2;ratioP2;P2;SDS_P1;SDS_P2;PMS_P1;PMS_P2;Temp;Humidity;BMP_temperature;BMP_pressure;BME280_temperature;BME280_humidity;BME280_pressure;Samples;Min_cycle;Max_cycle;Signal;HPM_P1;HPM_P2
2021/12/26 00:00:16;;;;;;;;;;;21.50;48.20;;;;;;1572753;75;1610;-65
2021/12/26 00:02:17;;;;;;;;;;;21.50;48.10;;;;;;1573303;74;733;-65
2021/12/26 00:04:19;;;;;;;;;;;21.50;48.10;;;;;;1573383;75;1237;-65
2021/12/26 00:06:22;;;;;;;;;;;21.50;48.20;;;;;;1573303;75;730;-65
2021/12/26 00:08:25;;;;;;;;;;;21.50;48.10;;;;;;1573338;74;730;-66
2021/12/26 00:10:27;;;;;;;;;;;21.50;48.10;;;;;;1573385;74;726;-66
2021/12/26 00:12:28;;;;;;;;;;;21.50;48.10;;;;;;1573237;75;1934;-65
2021/12/26 00:14:30;;;;;;;;;;;21.50;48.10;;;;;;1573319;74;1150;-64
2021/12/26 00:16:32;;;;;;;;;;;21.50;48.20;;;;;;1573249;74;773;-65
2021/12/26 00:18:34;;;;;;;;;;;21.50;48.20;;;;;;1573433;75;690;-65
2021/12/26 00:20:37;;;;;;;;;;;21.50;48.10;;;;;;1573313;74;777;-65
2021/12/26 00:22:39;;;;;;;;;;;21.50;48.20;;;;;;1573429;75;707;-65
2021/12/26 00:24:41;;;;;;;;;;;21.50;48.10;;;;;;1573349;74;1113;-66
2021/12/26 00:26:43;;;;;;;;;;;21.40;48.10;;;;;;1573260;74;705;-65
2021/12/26 00:28:45;;;;;;;;;;;21.50;48.10;;;;;;1573484;75;714;-64
2021/12/26 00:30:47;;;;;;;;;;;21.50;48.10;;;;;;1573290;75;730;-65
2021/12/26 00:32:49;;;;;;;;;;;21.50;48.20;;;;;;1573380;75;1939;-64
2021/12/26 00:34:51;;;;;;;;;;;21.50;48.10;;;;;;1573428;75;1125;-65
2021/12/26 00:36:53;;;;;;;;;;;21.50;48.10;;;;;;1573234;74;801;-64
2021/12/26 00:38:55;;;;;;;;;;;21.50;48.10;;;;;;1573496;74;641;-65
2021/12/26 00:40:57;;;;;;;;;;;21.50;48.10;;;;;;1573396;75;750;-65
2021/12/26 00:42:58;;;;;;;;;;;21.50;48.10;;;;;;1573394;75;741;-66
2021/12/26 00:45:00;;;;;;;;;;;21.50;48.10;;;;;;1573364;75;1130;-65
2021/12/26 00:47:02;;;;;;;;;;;21.50;48.10;;;;;;1573450;74;706;-65
2021/12/26 00:49:04;;;;;;;;;;;21.50;48.10;;;;;;1581864;75;719;-65
2021/12/26 00:51:06;;;;;;;;;;;21.50;48.10;;;;;;1585917;75;702;-65
2021/12/26 00:53:08;;;;;;;;;;;21.50;48.10;;;;;;1585893;75;1943;-65
2021/12/26 00:55:11;;;;;;;;;;;21.50;48.10;;;;;;1585840;75;1123;-65
2021/12/26 00:57:12;;;;;;;;;;;21.50;48.10;;;;;;1585850;75;702;-65
2021/12/26 00:59:14;;;;;;;;;;;21.50;48.10;;;;;;1585918;75;786;-65
2021/12/26 01:01:16;;;;;;;;;;;21.50;48.10;;;;;;1586013;75;705;-65
2021/12/26 01:03:18;;;;;;;;;;;21.50;48.10;;;;;;1585947;74;666;-65
2021/12/26 01:05:20;;;;;;;;;;;21.50;48.10;;;;;;1585829;75;1088;-66
2021/12/26 01:07:44;;;;;;;;;;;21.40;48.00;;;;;;1585794;75;795;-66
2021/12/26 01:09:28;;;;;;;;;;;21.40;48.00;;;;;;1581605;74;1334;-64
2021/12/26 01:11:36;;;;;;;;;;;21.50;48.10;;;;;;1585758;74;1623;-65
2021/12/26 01:13:38;;;;;;;;;;;21.50;48.10;;;;;;1585343;74;1926;-65
2021/12/26 01:15:39;;;;;;;;;;;21.50;48.20;;;;;;1585697;74;1138;-65
2021/12/26 01:17:43;;;;;;;;;;;21.40;48.00;;;;;;1585895;75;666;-64
2021/12/26 01:19:49;;;;;;;;;;;21.50;48.10;;;;;;1585894;75;701;-66
2021/12/26 01:21:48;;;;;;;;;;;21.30;48.00;;;;;;1585674;74;1599;-65
2021/12/26 01:23:52;;;;;;;;;;;21.50;48.10;;;;;;1585873;75;773;-65
2021/12/26 01:25:54;;;;;;;;;;;21.50;48.10;;;;;;1585229;74;1868;-65
2021/12/26 01:27:55;;;;;;;;;;;21.40;48.10;;;;;;1585948;74;643;-65
2021/12/26 01:29:59;;;;;;;;;;;21.50;48.20;;;;;;1586035;75;751;-66
2021/12/26 01:32:01;;;;;;;;;;;21.50;48.10;;;;;;1585936;75;710;-65
2021/12/26 01:34:04;;;;;;;;;;;21.40;48.10;;;;;;1585832;75;1923;-64
2021/12/26 01:36:06;;;;;;;;;;;21.50;48.10;;;;;;1586077;74;822;-65
2021/12/26 01:38:12;;;;;;;;;;;21.50;48.10;;;;;;1588296;75;701;-66
2021/12/26 01:40:11;;;;;;;;;;;21.40;48.00;;;;;;1587975;74;1549;-64
2021/12/26 01:42:13;;;;;;;;;;;21.50;48.10;;;;;;1588258;74;663;-65
2021/12/26 01:44:15;;;;;;;;;;;21.50;48.10;;;;;;1588250;75;1149;-64
2021/12/26 01:46:17;;;;;;;;;;;21.40;48.00;;;;;;1588240;75;765;-64
2021/12/26 01:48:20;;;;;;;;;;;21.40;48.00;;;;;;1574867;75;695;-64
2021/12/26 01:50:22;;;;;;;;;;;21.50;48.10;;;;;;1593433;74;789;-65
2021/12/26 01:52:24;;;;;;;;;;;21.50;48.10;;;;;;1573441;75;713;-65
2021/12/26 01:54:38;;;;;;;;;;;21.40;48.00;;;;;;1573303;75;1942;-64
2021/12/26 01:56:36;;;;;;;;;;;21.50;48.10;;;;;;1572497;75;1255;-65
2021/12/26 01:58:38;;;;;;;;;;;21.50;48.10;;;;;;1573243;75;697;-65
2021/12/26 02:00:41;;;;;;;;;;;21.50;48.10;;;;;;1573370;75;784;-65
2021/12/26 02:02:43;;;;;;;;;;;21.50;48.10;;;;;;1573389;75;633;-65
2021/12/26 02:04:45;;;;;;;;;;;21.50;48.10;;;;;;1573320;75;1140;-64
2021/12/26 02:06:47;;;;;;;;;;;21.50;48.10;;;;;;1573299;75;761;-65
2021/12/26 02:08:49;;;;;;;;;;;21.50;48.10;;;;;;1573348;75;699;-65
2021/12/26 02:10:51;;;;;;;;;;;21.50;48.10;;;;;;1573372;75;738;-65
2021/12/26 02:12:53;;;;;;;;;;;21.50;48.10;;;;;;1573389;74;685;-65
2021/12/26 02:14:55;;;;;;;;;;;21.40;48.00;;;;;;1573190;75;1932;-65
2021/12/26 02:16:57;;;;;;;;;;;21.50;48.10;;;;;;1573327;75;698;-65
2021/12/26 02:18:59;;;;;;;;;;;21.50;48.10;;;;;;1573328;75;724;-65
2021/12/26 02:23:16;;;;;;;;;;;21.40;48.00;;;;;;1573261;75;871;-65
2021/12/26 02:25:26;;;;;;;;;;;21.40;48.00;;;;;;1570245;75;1510;-65
2021/12/26 02:27:32;;;;;;;;;;;21.40;48.00;;;;;;1570726;75;1087;-65
2021/12/26 02:29:34;;;;;;;;;;;21.40;48.00;;;;;;1573424;75;669;-65
2021/12/26 02:31:36;;;;;;;;;;;21.40;48.00;;;;;;1573451;75;768;-65
2021/12/26 02:33:38;;;;;;;;;;;21.50;48.20;;;;;;1573380;75;1938;-65
2021/12/26 02:35:40;;;;;;;;;;;21.40;48.00;;;;;;1573306;75;1437;-66
2021/12/26 02:37:45;;;;;;;;;;;21.40;48.00;;;;;;1573350;75;779;-66
2021/12/26 02:39:46;;;;;;;;;;;21.40;48.00;;;;;;1573398;75;918;-65
2021/12/26 02:41:48;;;;;;;;;;;21.40;48.10;;;;;;1573485;75;715;-65
2021/12/26 02:43:50;;;;;;;;;;;21.40;48.00;;;;;;1573438;74;702;-66
2021/12/26 02:45:52;;;;;;;;;;;21.40;48.00;;;;;;1573286;75;1142;-66
2021/12/26 02:47:54;;;;;;;;;;;21.40;48.00;;;;;;1553373;75;1129;-65
2021/12/26 02:49:57;;;;;;;;;;;21.50;48.10;;;;;;1573267;75;791;-65
2021/12/26 02:51:59;;;;;;;;;;;21.40;48.00;;;;;;1572992;75;1273;-65
2021/12/26 02:54:01;;;;;;;;;;;21.40;48.00;;;;;;1573310;75;1934;-65
2021/12/26 02:56:03;;;;;;;;;;;21.40;48.00;;;;;;1573187;75;713;-65
2021/12/26 02:58:07;;;;;;;;;;;21.50;48.10;;;;;;1573390;75;626;-66
2021/12/26 03:00:09;;;;;;;;;;;21.40;48.00;;;;;;1573259;75;815;-66
2021/12/26 03:02:11;;;;;;;;;;;21.40;48.00;;;;;;1573359;75;709;-66
2021/12/26 03:04:13;;;;;;;;;;;21.40;48.00;;;;;;1573400;75;1106;-66
2021/12/26 03:06:22;;;;;;;;;;;21.50;48.10;;;;;;1573245;75;789;-65
2021/12/26 03:08:19;;;;;;;;;;;21.40;48.00;;;;;;1572236;75;1532;-65
2021/12/26 03:10:22;;;;;;;;;;;21.40;48.00;;;;;;1573299;75;716;-66
2021/12/26 03:12:24;;;;;;;;;;;21.40;48.00;;;;;;1573386;75;685;-66
2021/12/26 03:14:26;;;;;;;;;;;21.50;48.20;;;;;;1573310;75;1940;-65
2021/12/26 03:16:27;;;;;;;;;;;21.50;48.10;;;;;;1573231;75;730;-65
2021/12/26 03:18:29;;;;;;;;;;;21.40;48.00;;;;;;1573440;75;732;-65
2021/12/26 03:20:32;;;;;;;;;;;21.40;48.00;;;;;;1573348;75;789;-66
2021/12/26 03:22:34;;;;;;;;;;;21.40;48.00;;;;;;1573247;75;682;-65
2021/12/26 03:24:38;;;;;;;;;;;21.40;48.00;;;;;;1573305;75;1152;-65
2021/12/26 03:26:40;;;;;;;;;;;21.40;48.00;;;;;;1573254;75;769;-66
2021/12/26 03:28:42;;;;;;;;;;;21.50;48.10;;;;;;1573420;75;701;-65
2021/12/26 03:30:43;;;;;;;;;;;21.40;48.00;;;;;;1573347;75;707;-65
2021/12/26 03:32:45;;;;;;;;;;;21.50;48.10;;;;;;1573302;75;819;-66
2021/12/26 03:34:47;;;;;;;;;;;21.40;48.00;;;;;;1573322;75;1945;-65
2021/12/26 03:36:52;;;;;;;;;;;21.40;48.00;;;;;;1573196;75;744;-65
2021/12/26 03:38:53;;;;;;;;;;;21.40;47.90;;;;;;1573115;75;1579;-65
2021/12/26 03:40:55;;;;;;;;;;;21.40;48.00;;;;;;1573430;75;769;-66
2021/12/26 03:42:57;;;;;;;;;;;21.40;47.90;;;;;;1573261;75;702;-66
2021/12/26 03:44:59;;;;;;;;;;;21.40;47.90;;;;;;1573383;75;1133;-65
2021/12/26 03:47:01;;;;;;;;;;;21.50;48.10;;;;;;1573274;75;778;-65
2021/12/26 03:49:05;;;;;;;;;;;21.50;48.10;;;;;;1573443;75;773;-66
2021/12/26 03:51:07;;;;;;;;;;;21.40;47.90;;;;;;1573327;75;844;-65
2021/12/26 03:53:09;;;;;;;;;;;21.40;47.90;;;;;;1573307;75;795;-66
2021/12/26 03:55:11;;;;;;;;;;;21.40;48.00;;;;;;1573148;75;1942;-66
2021/12/26 03:57:12;;;;;;;;;;;21.50;48.10;;;;;;1573375;75;732;-65
2021/12/26 03:59:14;;;;;;;;;;;21.40;48.00;;;;;;1573373;75;716;-65
2021/12/26 04:01:16;;;;;;;;;;;21.40;47.90;;;;;;1573437;75;769;-66
2021/12/26 04:03:18;;;;;;;;;;;21.40;48.00;;;;;;1573342;75;792;-66
2021/12/26 04:05:20;;;;;;;;;;;21.50;48.10;;;;;;1573185;75;1110;-65
2021/12/26 04:07:22;;;;;;;;;;;21.40;48.00;;;;;;1573329;75;658;-66
2021/12/26 04:09:24;;;;;;;;;;;21.40;48.00;;;;;;1573349;75;711;-66
2021/12/26 04:11:26;;;;;;;;;;;21.40;48.00;;;;;;1573418;75;761;-67
2021/12/26 04:13:27;;;;;;;;;;;21.50;48.10;;;;;;1573221;75;801;-65
2021/12/26 04:15:29;;;;;;;;;;;21.40;47.90;;;;;;1573153;75;1892;-65
2021/12/26 04:17:31;;;;;;;;;;;21.40;48.00;;;;;;1573240;75;723;-65
2021/12/26 04:19:33;;;;;;;;;;;21.40;48.00;;;;;;1573415;75;671;-65
2021/12/26 04:21:35;;;;;;;;;;;21.50;48.10;;;;;;1573405;75;686;-65
2021/12/26 04:23:37;;;;;;;;;;;21.40;48.00;;;;;;1573355;75;651;-66
2021/12/26 04:25:40;;;;;;;;;;;21.40;47.90;;;;;;1573276;75;1124;-66
2021/12/26 04:27:42;;;;;;;;;;;21.40;48.00;;;;;;1573286;75;797;-65
2021/12/26 04:29:43;;;;;;;;;;;21.40;48.00;;;;;;1573333;75;690;-65
2021/12/26 04:31:45;;;;;;;;;;;21.40;48.00;;;;;;1573418;75;663;-65
2021/12/26 04:33:47;;;;;;;;;;;21.40;47.90;;;;;;1573337;75;715;-66
2021/12/26 04:35:49;;;;;;;;;;;21.40;48.00;;;;;;1573152;75;1953;-65
2021/12/26 04:37:51;;;;;;;;;;;21.40;48.00;;;;;;1573374;75;698;-66
2021/12/26 04:39:53;;;;;;;;;;;21.40;48.00;;;;;;1573305;75;694;-65
2021/12/26 04:41:55;;;;;;;;;;;21.40;48.00;;;;;;1573399;75;788;-66
2021/12/26 04:43:57;;;;;;;;;;;21.40;48.00;;;;;;1573284;75;1082;-66
2021/12/26 04:46:00;;;;;;;;;;;21.40;48.00;;;;;;1573282;75;647;-66
2021/12/26 04:48:03;;;;;;;;;;;21.50;48.10;;;;;;1573156;75;1815;-66
2021/12/26 04:50:05;;;;;;;;;;;21.40;48.00;;;;;;1573174;75;760;-65
2021/12/26 04:52:07;;;;;;;;;;;21.40;48.00;;;;;;1573302;75;792;-65
2021/12/26 04:54:09;;;;;;;;;;;21.40;47.90;;;;;;1573200;75;1958;-65
2021/12/26 04:56:11;;;;;;;;;;;21.50;48.10;;;;;;1573377;75;653;-66
2021/12/26 04:58:13;;;;;;;;;;;21.40;48.00;;;;;;1573331;75;740;-65
2021/12/26 05:00:16;;;;;;;;;;;21.40;48.00;;;;;;1573327;75;732;-66
2021/12/26 05:02:19;;;;;;;;;;;21.40;48.00;;;;;;1572903;75;1917;-66
2021/12/26 05:04:21;;;;;;;;;;;21.40;47.90;;;;;;1573143;75;1129;-65
2021/12/26 05:06:22;;;;;;;;;;;21.40;47.90;;;;;;1573322;75;735;-66
2021/12/26 05:08:24;;;;;;;;;;;21.40;48.00;;;;;;1573495;75;697;-65
2021/12/26 05:10:28;;;;;;;;;;;21.40;48.00;;;;;;1573386;75;762;-65
2021/12/26 05:12:30;;;;;;;;;;;21.40;47.90;;;;;;1573408;75;734;-66
2021/12/26 05:14:32;;;;;;;;;;;21.40;48.00;;;;;;1573305;75;1944;-66
2021/12/26 05:16:34;;;;;;;;;;;21.40;48.00;;;;;;1573423;75;864;-66
2021/12/26 05:18:35;;;;;;;;;;;21.40;48.00;;;;;;1573450;75;777;-66
2021/12/26 05:20:37;;;;;;;;;;;21.40;47.90;;;;;;1573395;75;712;-65
2021/12/26 05:22:39;;;;;;;;;;;21.40;47.90;;;;;;1573469;75;699;-66
2021/12/26 05:24:41;;;;;;;;;;;21.40;47.90;;;;;;1573232;75;1174;-65
2021/12/26 05:26:43;;;;;;;;;;;21.50;48.10;;;;;;1573414;75;745;-64
2021/12/26 05:28:45;;;;;;;;;;;21.40;47.90;;;;;;1573481;75;639;-64
2021/12/26 05:30:47;;;;;;;;;;;21.40;47.90;;;;;;1573368;75;724;-66
2021/12/26 05:32:49;;;;;;;;;;;21.40;47.90;;;;;;1573503;75;703;-64
2021/12/26 05:34:51;;;;;;;;;;;21.40;48.00;;;;;;1573340;75;1942;-65
2021/12/26 05:36:52;;;;;;;;;;;21.40;47.90;;;;;;1573427;75;698;-64
2021/12/26 05:38:56;;;;;;;;;;;21.40;47.90;;;;;;1573536;75;729;-64
2021/12/26 05:40:58;;;;;;;;;;;21.40;48.00;;;;;;1573345;75;700;-65
2021/12/26 05:42:59;;;;;;;;;;;21.50;48.10;;;;;;1573359;75;725;-65
2021/12/26 05:45:01;;;;;;;;;;;21.50;48.10;;;;;;1573283;75;1092;-65
2021/12/26 05:47:03;;;;;;;;;;;21.40;47.90;;;;;;1573391;75;673;-65
2021/12/26 05:49:05;;;;;;;;;;;21.40;47.90;;;;;;1573443;75;766;-65
2021/12/26 05:51:07;;;;;;;;;;;21.40;47.90;;;;;;1573363;75;789;-65
2021/12/26 05:53:09;;;;;;;;;;;21.40;48.00;;;;;;1573436;75;797;-65
2021/12/26 05:55:11;;;;;;;;;;;21.40;48.00;;;;;;1573193;75;1944;-65
2021/12/26 05:57:13;;;;;;;;;;;21.40;47.90;;;;;;1573397;75;801;-65
2021/12/26 05:59:14;;;;;;;;;;;21.40;48.00;;;;;;1573437;75;728;-65
2021/12/26 06:01:16;;;;;;;;;;;21.40;48.00;;;;;;1573215;75;775;-65
2021/12/26 06:03:18;;;;;;;;;;;21.40;47.90;;;;;;1573406;75;793;-65
2021/12/26 06:05:20;;;;;;;;;;;21.40;48.00;;;;;;1573317;75;1129;-65
2021/12/26 06:07:22;;;;;;;;;;;21.40;48.00;;;;;;1573267;75;1041;-65
2021/12/26 06:09:24;;;;;;;;;;;21.40;48.00;;;;;;1573259;75;772;-65
2021/12/26 06:11:26;;;;;;;;;;;21.40;47.90;;;;;;1573313;75;673;-65
2021/12/26 06:13:29;;;;;;;;;;;21.40;47.90;;;;;;1573385;75;803;-65
2021/12/26 06:15:32;;;;;;;;;;;21.40;47.90;;;;;;1573221;75;1900;-65
2021/12/26 06:17:34;;;;;;;;;;;21.40;48.00;;;;;;1573277;75;715;-64
2021/12/26 06:19:35;;;;;;;;;;;21.40;47.90;;;;;;1573287;75;869;-65
2021/12/26 06:21:37;;;;;;;;;;;21.40;48.00;;;;;;1573359;75;724;-65
2021/12/26 06:23:39;;;;;;;;;;;21.40;47.90;;;;;;1573471;75;792;-65
2021/12/26 06:25:41;;;;;;;;;;;21.40;47.90;;;;;;1573294;75;1117;-65
2021/12/26 06:27:43;;;;;;;;;;;21.50;48.10;;;;;;1573388;75;713;-65
2021/12/26 06:29:45;;;;;;;;;;;21.40;47.90;;;;;;1573525;75;646;-66
2021/12/26 06:31:47;;;;;;;;;;;21.40;47.90;;;;;;1573241;75;736;-64
2021/12/26 06:33:49;;;;;;;;;;;21.40;47.90;;;;;;1573488;75;712;-65
2021/12/26 06:35:50;;;;;;;;;;;21.30;48.00;;;;;;1573246;75;1950;-65
2021/12/26 06:37:52;;;;;;;;;;;21.40;47.90;;;;;;1573383;75;788;-65
2021/12/26 06:39:54;;;;;;;;;;;21.40;47.90;;;;;;1573355;75;784;-65
2021/12/26 06:41:56;;;;;;;;;;;21.40;47.90;;;;;;1573363;75;696;-66
2021/12/26 06:43:58;;;;;;;;;;;21.40;47.90;;;;;;1573288;75;1149;-65
2021/12/26 06:46:02;;;;;;;;;;;21.40;47.90;;;;;;1573325;75;704;-65
2021/12/26 06:48:06;;;;;;;;;;;21.40;48.00;;;;;;1573216;75;732;-66
2021/12/26 06:50:08;;;;;;;;;;;21.40;47.90;;;;;;1573335;75;739;-66
2021/12/26 06:52:10;;;;;;;;;;;21.40;48.00;;;;;;1573386;75;744;-67
2021/12/26 06:54:12;;;;;;;;;;;21.30;48.00;;;;;;1573394;75;1128;-65
2021/12/26 06:56:14;;;;;;;;;;;21.40;48.00;;;;;;1573254;75;1923;-65
2021/12/26 06:58:16;;;;;;;;;;;21.40;48.00;;;;;;1573338;75;793;-65
2021/12/26 07:00:18;;;;;;;;;;;21.40;48.00;;;;;;1573450;75;781;-65
2021/12/26 07:02:20;;;;;;;;;;;21.40;48.00;;;;;;1573463;75;705;-65
2021/12/26 07:04:21;;;;;;;;;;;21.40;48.00;;;;;;1573340;75;1113;-65
2021/12/26 07:06:23;;;;;;;;;;;21.40;47.90;;;;;;1573403;75;705;-65
2021/12/26 07:08:25;;;;;;;;;;;21.40;47.90;;;;;;1573367;75;766;-65
2021/12/26 07:10:27;;;;;;;;;;;21.40;48.00;;;;;;1573457;75;716;-65
2021/12/26 07:12:29;;;;;;;;;;;21.40;48.00;;;;;;1573434;75;769;-65
2021/12/26 07:14:31;;;;;;;;;;;21.40;48.00;;;;;;1573336;75;1082;-65
2021/12/26 07:16:33;;;;;;;;;;;21.40;48.00;;;;;;1573279;75;1930;-65
2021/12/26 07:18:34;;;;;;;;;;;21.40;48.00;;;;;;1573344;75;693;-65
2021/12/26 07:20:37;;;;;;;;;;;21.40;48.00;;;;;;1573432;75;647;-65
2021/12/26 07:22:39;;;;;;;;;;;21.40;48.00;;;;;;1573314;75;754;-65
2021/12/26 07:24:43;;;;;;;;;;;21.40;48.00;;;;;;1573348;75;1071;-65
2021/12/26 07:26:45;;;;;;;;;;;21.40;48.00;;;;;;1573138;75;1594;-65
2021/12/26 07:28:46;;;;;;;;;;;21.40;47.90;;;;;;1573302;75;724;-65
2021/12/26 07:30:48;;;;;;;;;;;21.40;48.00;;;;;;1573451;75;730;-66
2021/12/26 07:32:50;;;;;;;;;;;21.40;47.90;;;;;;1573314;75;801;-65
2021/12/26 07:34:52;;;;;;;;;;;21.40;48.00;;;;;;1573349;75;1147;-65
2021/12/26 07:36:54;;;;;;;;;;;21.40;48.00;;;;;;1573290;75;1932;-65
2021/12/26 07:38:56;;;;;;;;;;;21.40;48.00;;;;;;1573407;75;783;-65
2021/12/26 07:40:58;;;;;;;;;;;21.40;47.90;;;;;;1573396;75;781;-65
2021/12/26 07:42:59;;;;;;;;;;;21.40;48.00;;;;;;1573399;75;822;-65
2021/12/26 07:45:01;;;;;;;;;;;21.40;48.00;;;;;;1573284;75;1145;-66
2021/12/26 07:47:04;;;;;;;;;;;21.40;48.00;;;;;;1573395;75;711;-65
2021/12/26 07:49:05;;;;;;;;;;;21.40;48.00;;;;;;1573171;75;739;-65
2021/12/26 07:51:07;;;;;;;;;;;21.40;48.00;;;;;;1573438;75;719;-64
2021/12/26 07:53:11;;;;;;;;;;;21.40;48.00;;;;;;1573406;75;787;-65
2021/12/26 07:55:13;;;;;;;;;;;21.40;47.90;;;;;;1573156;75;1968;-65
2021/12/26 07:57:16;;;;;;;;;;;21.30;48.00;;;;;;1573280;75;1366;-66
2021/12/26 07:59:18;;;;;;;;;;;21.40;48.00;;;;;;1573311;75;683;-65
2021/12/26 08:01:20;;;;;;;;;;;21.40;47.90;;;;;;1573399;75;704;-65
2021/12/26 08:03:22;;;;;;;;;;;21.40;47.90;;;;;;1580668;74;649;-65
2021/12/26 08:05:24;;;;;;;;;;;21.40;48.00;;;;;;1608028;74;1148;-65
2021/12/26 08:07:26;;;;;;;;;;;21.40;47.90;;;;;;1613547;74;759;-65
2021/12/26 08:09:28;;;;;;;;;;;21.40;48.00;;;;;;1613452;74;637;-65
2021/12/26 08:11:30;;;;;;;;;;;21.40;47.90;;;;;;1613523;74;638;-65
2021/12/26 08:13:31;;;;;;;;;;;21.30;47.90;;;;;;1613396;74;693;-65
2021/12/26 08:15:33;;;;;;;;;;;21.40;47.90;;;;;;1613324;74;1948;-66
2021/12/26 08:17:38;;;;;;;;;;;21.40;47.90;;;;;;1613368;74;732;-65
2021/12/26 08:19:40;;;;;;;;;;;21.40;47.90;;;;;;1613364;74;895;-65
2021/12/26 08:21:43;;;;;;;;;;;21.40;48.00;;;;;;1613479;74;662;-65
2021/12/26 08:23:45;;;;;;;;;;;21.40;48.00;;;;;;1613407;74;801;-63
2021/12/26 08:25:47;;;;;;;;;;;21.40;47.90;;;;;;1613210;74;1106;-64
2021/12/26 08:27:49;;;;;;;;;;;21.40;47.90;;;;;;1613489;74;681;-64
2021/12/26 08:29:51;;;;;;;;;;;21.40;48.00;;;;;;1613520;74;637;-65
2021/12/26 08:31:55;;;;;;;;;;;21.40;47.90;;;;;;1613353;74;733;-66
2021/12/26 08:33:56;;;;;;;;;;;21.40;48.00;;;;;;1613213;73;1836;-66
2021/12/26 08:35:58;;;;;;;;;;;21.40;47.90;;;;;;1613190;74;1942;-64
2021/12/26 08:38:00;;;;;;;;;;;21.40;48.00;;;;;;1613360;74;784;-65
2021/12/26 08:40:02;;;;;;;;;;;21.40;48.00;;;;;;1613502;74;772;-65
2021/12/26 08:42:04;;;;;;;;;;;21.30;47.90;;;;;;1613535;74;890;-65
2021/12/26 08:44:06;;;;;;;;;;;21.40;48.00;;;;;;1613431;74;1140;-65
2021/12/26 08:46:08;;;;;;;;;;;21.40;48.00;;;;;;1613501;74;692;-65
2021/12/26 08:48:10;;;;;;;;;;;21.30;48.00;;;;;;1604335;74;697;-65
2021/12/26 08:50:12;;;;;;;;;;;21.40;48.00;;;;;;1573480;75;717;-65
2021/12/26 08:52:14;;;;;;;;;;;21.30;48.10;;;;;;1573368;75;705;-65
2021/12/26 08:54:16;;;;;;;;;;;21.40;48.00;;;;;;1573425;75;1122;-66
2021/12/26 08:56:18;;;;;;;;;;;21.40;48.00;;;;;;1573276;75;1938;-67
2021/12/26 08:58:20;;;;;;;;;;;21.40;47.90;;;;;;1573303;75;804;-65
2021/12/26 09:00:22;;;;;;;;;;;21.40;48.00;;;;;;1573490;75;769;-65
2021/12/26 09:02:24;;;;;;;;;;;21.40;48.00;;;;;;1573279;75;792;-65
2021/12/26 09:04:26;;;;;;;;;;;21.40;48.00;;;;;;1573430;75;1039;-63
2021/12/26 09:06:28;;;;;;;;;;;21.40;48.00;;;;;;1573301;74;776;-63
2021/12/26 09:08:29;;;;;;;;;;;21.40;47.90;;;;;;1573438;75;782;-65
2021/12/26 09:10:31;;;;;;;;;;;21.40;47.90;;;;;;1573495;75;1085;-65
2021/12/26 09:12:33;;;;;;;;;;;21.40;47.90;;;;;;1573344;75;658;-65
2021/12/26 09:14:35;;;;;;;;;;;21.40;47.90;;;;;;1573450;75;1101;-67
2021/12/26 09:16:37;;;;;;;;;;;21.40;47.90;;;;;;1573241;75;1919;-65
2021/12/26 09:18:39;;;;;;;;;;;21.40;47.90;;;;;;1573468;75;749;-65
2021/12/26 09:20:41;;;;;;;;;;;21.40;47.90;;;;;;1573415;75;714;-65
2021/12/26 09:22:43;;;;;;;;;;;21.40;47.90;;;;;;1573360;75;718;-65
2021/12/26 09:24:45;;;;;;;;;;;21.40;47.90;;;;;;1573416;75;1164;-65
2021/12/26 09:26:47;;;;;;;;;;;21.40;47.90;;;;;;1573289;75;682;-65
2021/12/26 09:28:49;;;;;;;;;;;21.40;48.00;;;;;;1573432;75;642;-65
2021/12/26 09:30:51;;;;;;;;;;;21.40;47.90;;;;;;1573373;75;773;-65
2021/12/26 09:32:53;;;;;;;;;;;21.40;48.00;;;;;;1573402;75;718;-65
2021/12/26 09:34:55;;;;;;;;;;;21.40;48.00;;;;;;1573424;75;1114;-65
2021/12/26 09:36:57;;;;;;;;;;;21.40;48.00;;;;;;1573379;75;1940;-65
2021/12/26 09:38:59;;;;;;;;;;;21.40;48.00;;;;;;1573318;75;670;-65
2021/12/26 09:41:01;;;;;;;;;;;21.40;48.00;;;;;;1573337;75;820;-65
2021/12/26 09:43:03;;;;;;;;;;;21.40;48.00;;;;;;1573298;75;670;-65
2021/12/26 09:45:06;;;;;;;;;;;21.40;48.00;;;;;;1573365;75;1136;-66
2021/12/26 09:47:09;;;;;;;;;;;21.40;48.00;;;;;;1573367;75;569;-65
2021/12/26 09:49:10;;;;;;;;;;;21.30;48.00;;;;;;1573279;75;785;-65
2021/12/26 09:51:13;;;;;;;;;;;21.40;48.00;;;;;;1573412;75;634;-65
2021/12/26 09:53:15;;;;;;;;;;;21.40;48.00;;;;;;1573315;75;773;-65
2021/12/26 09:55:16;;;;;;;;;;;21.40;47.90;;;;;;1582610;75;1228;-65
2021/12/26 09:57:18;;;;;;;;;;;21.40;48.00;;;;;;1588304;75;1935;-65
2021/12/26 09:59:21;;;;;;;;;;;21.40;48.00;;;;;;1588279;75;763;-65
2021/12/26 10:01:33;;;;;;;;;;;21.40;48.00;;;;;;1588244;75;898;-64
2021/12/26 10:03:36;;;;;;;;;;;21.40;48.00;;;;;;1588079;74;801;-65
2021/12/26 10:05:56;;;;;;;;;;;21.40;48.00;;;;;;1588161;75;1096;-66
2021/12/26 10:08:00;;;;;;;;;;;21.40;48.00;;;;;;1588413;74;647;-66
2021/12/26 10:10:03;;;;;;;;;;;21.40;48.10;;;;;;1586236;75;2027;-66
2021/12/26 10:12:06;;;;;;;;;;;21.40;48.10;;;;;;1587858;74;1079;-66
2021/12/26 10:14:09;;;;;;;;;;;21.30;48.00;;;;;;1588158;75;1141;-66
2021/12/26 10:16:11;;;;;;;;;;;21.40;48.00;;;;;;1588119;75;1933;-66
2021/12/26 10:18:28;;;;;;;;;;;21.40;48.10;;;;;;1588242;75;791;-66
2021/12/26 10:20:31;;;;;;;;;;;21.40;48.00;;;;;;1588316;75;752;-66
2021/12/26 10:22:33;;;;;;;;;;;21.30;48.00;;;;;;1588179;74;1791;-66
2021/12/26 10:24:36;;;;;;;;;;;21.40;48.00;;;;;;1588223;75;1213;-66
2021/12/26 10:26:39;;;;;;;;;;;21.30;48.00;;;;;;1588190;75;799;-66
2021/12/26 10:28:40;;;;;;;;;;;21.40;48.00;;;;;;1588234;75;742;-66
2021/12/26 10:30:43;;;;;;;;;;;21.30;48.10;;;;;;1588294;74;683;-66
2021/12/26 10:32:45;;;;;;;;;;;21.40;48.00;;;;;;1588260;75;670;-66
2021/12/26 10:34:48;;;;;;;;;;;21.40;48.00;;;;;;1584505;72;3167;-59
2021/12/26 10:36:51;;;;;;;;;;;21.40;48.00;;;;;;1520450;77;1938;-61
2021/12/26 10:39:12;;;;;;;;;;;21.40;48.00;;;;;;1553026;76;832;-61
2021/12/26 10:41:26;;;;;;;;;;;21.40;48.00;;;;;;1554133;76;714;-61
2021/12/26 10:43:29;;;;;;;;;;;21.40;48.10;;;;;;1554161;76;775;-61
2021/12/26 10:45:32;;;;;;;;;;;21.40;48.10;;;;;;1553240;76;1849;-61
2021/12/26 10:47:35;;;;;;;;;;;21.40;48.10;;;;;;1556696;76;831;-61
2021/12/26 10:49:41;;;;;;;;;;;21.40;48.10;;;;;;1552593;76;733;-61
2021/12/26 10:51:43;;;;;;;;;;;21.40;48.10;;;;;;1533917;76;769;-62
2021/12/26 10:53:46;;;;;;;;;;;21.40;48.10;;;;;;1535272;77;784;-63
2021/12/26 10:55:51;;;;;;;;;;;21.40;48.10;;;;;;1532500;76;1154;-61
2021/12/26 10:57:52;;;;;;;;;;;21.40;48.10;;;;;;1509893;77;1923;-62
2021/12/26 11:00:13;;;;;;;;;;;21.40;48.10;;;;;;1509577;79;749;-61
2021/12/26 11:02:22;;;;;;;;;;;21.30;48.00;;;;;;1509692;79;661;-61
2021/12/26 11:04:25;;;;;;;;;;;21.40;48.10;;;;;;1509707;79;740;-61
2021/12/26 11:06:26;;;;;;;;;;;21.40;48.10;;;;;;1509522;79;1184;-60
2021/12/26 11:08:35;;;;;;;;;;;21.40;48.00;;;;;;1509848;79;669;-60
2021/12/26 11:10:37;;;;;;;;;;;21.40;48.10;;;;;;1509626;79;943;-61
2021/12/26 11:12:41;;;;;;;;;;;21.30;48.10;;;;;;1509719;79;685;-61
2021/12/26 11:14:58;;;;;;;;;;;21.40;48.00;;;;;;1509434;78;1936;-61
2021/12/26 11:17:00;;;;;;;;;;;21.30;48.00;;;;;;1509576;79;1931;-61
2021/12/26 11:19:02;;;;;;;;;;;21.30;48.00;;;;;;1509663;79;797;-61
2021/12/26 11:21:08;;;;;;;;;;;21.30;48.00;;;;;;1509690;79;735;-60
2021/12/26 11:23:11;;;;;;;;;;;21.30;48.10;;;;;;1509774;79;787;-60
2021/12/26 11:25:12;;;;;;;;;;;21.40;48.10;;;;;;1509579;79;1151;-61
2021/12/26 11:27:14;;;;;;;;;;;21.40;48.00;;;;;;1509722;79;722;-61
2021/12/26 11:29:16;;;;;;;;;;;21.40;48.00;;;;;;1509678;79;718;-61
2021/12/26 11:31:19;;;;;;;;;;;21.40;48.00;;;;;;1509684;79;714;-61
2021/12/26 11:33:21;;;;;;;;;;;21.40;48.00;;;;;;1509706;79;559;-61
2021/12/26 11:35:23;;;;;;;;;;;21.40;48.00;;;;;;1509627;79;1120;-61
2021/12/26 11:37:25;;;;;;;;;;;21.40;48.00;;;;;;1509619;79;1935;-61
2021/12/26 11:39:27;;;;;;;;;;;21.40;48.00;;;;;;1509793;79;777;-61
2021/12/26 11:41:31;;;;;;;;;;;21.40;48.00;;;;;;1509623;79;771;-61
2021/12/26 11:43:52;;;;;;;;;;;21.40;48.00;;;;;;1509648;79;718;-61
2021/12/26 11:46:12;;;;;;;;;;;21.40;48.00;;;;;;1509553;79;1159;-60
2021/12/26 11:48:39;;;;;;;;;;;21.40;48.10;;;;;;1509735;79;709;-60
2021/12/26 11:50:37;;;;;;;;;;;21.40;48.10;;;;;;1510548;77;1543;-61
2021/12/26 11:52:50;;;;;;;;;;;21.30;48.10;;;;;;1510134;78;979;-62
2021/12/26 11:54:54;;;;;;;;;;;21.40;48.10;;;;;;1519761;77;1092;-61
2021/12/26 11:57:14;;;;;;;;;;;21.30;48.10;;;;;;1533585;77;1912;-61
2021/12/26 11:59:26;;;;;;;;;;;21.30;48.10;;;;;;1533763;77;757;-61
2021/12/26 12:01:28;;;;;;;;;;;21.40;48.10;;;;;;1533183;76;1916;-61
2021/12/26 12:03:31;;;;;;;;;;;21.40;48.10;;;;;;1533705;77;712;-61
2021/12/26 12:05:37;;;;;;;;;;;21.30;48.10;;;;;;1533501;77;1156;-61
2021/12/26 12:07:45;;;;;;;;;;;21.40;48.10;;;;;;1533597;77;848;-61
2021/12/26 12:09:47;;;;;;;;;;;21.30;48.10;;;;;;1533645;77;773;-61
2021/12/26 12:12:00;;;;;;;;;;;21.40;48.10;;;;;;1533625;77;784;-61
2021/12/26 12:14:02;;;;;;;;;;;21.30;48.00;;;;;;1533437;77;722;-61